sensor_id;sensor_type;location;lat;lon;timestamp;temperature;humidity
5150;DHT22;2593;52.466;13.436;2023-01-23T00:01:15;2.00;99.90
5150;DHT22;2593;52.466;13.436;2023-01-23T00:03:42;1.90;99.90
5150;DHT22;2593;52.466;13.436;2023-01-23T00:06:12;1.80;99.90
5150;DHT22;2593;52.466;13.436;2023-01-23T00:08:39;1.80;99.90
5150;DHT22;2593;52.466;13.436;2023-01-23T00:11:08;1.80;99.90
5150;DHT22;2593;52.466;13.436;2023-01-23T00:13:35;1.80;99.90
5150;DHT22;2593;52.466;13.436;2023-01-23T00:16:08;1.80;99.90
5150;DHT22;2593;52.466;13.436;2023-01-23T00:18:34;1.80;99.90
5150;DHT22;2593;52.466;13.436;2023-01-23T00:21:08;1.90;99.90
5150;DHT22;2593;52.466;13.436;2023-01-23T00:23:34;1.90;99.90
5150;DHT22;2593;52.466;13.436;2023-01-23T00:26:08;1.90;99.90
5150;DHT22;2593;52.466;13.436;2023-01-23T00:28:35;1.90;99.90
5150;DHT22;2593;52.466;13.436;2023-01-23T00:31:10;1.90;99.90
5150;DHT22;2593;52.466;13.436;2023-01-23T00:33:38;1.90;99.90
5150;DHT22;2593;52.466;13.436;2023-01-23T00:36:03;1.80;99.90
5150;DHT22;2593;52.466;13.436;2023-01-23T00:38:29;1.70;99.90
5150;DHT22;2593;52.466;13.436;2023-01-23T00:40:55;1.70;99.90
5150;DHT22;2593;52.466;13.436;2023-01-23T00:43:22;1.70;99.90
5150;DHT22;2593;52.466;13.436;2023-01-23T00:45:48;1.70;99.90
5150;DHT22;2593;52.466;13.436;2023-01-23T00:48:13;1.70;99.90
5150;DHT22;2593;52.466;13.436;2023-01-23T00:50:39;1.70;99.90
5150;DHT22;2593;52.466;13.436;2023-01-23T00:53:05;1.70;99.90
5150;DHT22;2593;52.466;13.436;2023-01-23T00:55:31;1.70;99.90
5150;DHT22;2593;52.466;13.436;2023-01-23T00:57:56;1.80;99.90
5150;DHT22;2593;52.466;13.436;2023-01-23T01:00:22;1.80;99.90
5150;DHT22;2593;52.466;13.436;2023-01-23T01:02:48;1.90;99.90
5150;DHT22;2593;52.466;13.436;2023-01-23T01:05:14;1.80;99.90
5150;DHT22;2593;52.466;13.436;2023-01-23T01:07:43;1.80;99.90
5150;DHT22;2593;52.466;13.436;2023-01-23T01:10:09;1.90;99.90
5150;DHT22;2593;52.466;13.436;2023-01-23T01:12:35;1.90;99.90
5150;DHT22;2593;52.466;13.436;2023-01-23T01:15:01;2.00;99.90
5150;DHT22;2593;52.466;13.436;2023-01-23T01:17:27;1.80;99.90
5150;DHT22;2593;52.466;13.436;2023-01-23T01:19:52;1.80;99.90
5150;DHT22;2593;52.466;13.436;2023-01-23T01:22:18;1.80;99.90
5150;DHT22;2593;52.466;13.436;2023-01-23T01:24:44;1.90;99.90
5150;DHT22;2593;52.466;13.436;2023-01-23T01:27:09;1.90;99.90
5150;DHT22;2593;52.466;13.436;2023-01-23T01:29:35;2.00;99.90
5150;DHT22;2593;52.466;13.436;2023-01-23T01:32:01;1.90;99.90
5150;DHT22;2593;52.466;13.436;2023-01-23T01:34:26;1.90;99.90
5150;DHT22;2593;52.466;13.436;2023-01-23T01:36:52;1.80;99.90
5150;DHT22;2593;52.466;13.436;2023-01-23T01:39:18;1.70;99.90
5150;DHT22;2593;52.466;13.436;2023-01-23T01:41:44;1.80;99.90
5150;DHT22;2593;52.466;13.436;2023-01-23T01:44:19;1.80;99.90
5150;DHT22;2593;52.466;13.436;2023-01-23T01:46:45;1.80;99.90
5150;DHT22;2593;52.466;13.436;2023-01-23T01:49:22;1.80;99.90
5150;DHT22;2593;52.466;13.436;2023-01-23T01:54:31;1.80;99.90
5150;DHT22;2593;52.466;13.436;2023-01-23T01:57:20;1.80;99.90
5150;DHT22;2593;52.466;13.436;2023-01-23T02:00:14;1.80;99.90
5150;DHT22;2593;52.466;13.436;2023-01-23T02:02:50;1.80;99.90
5150;DHT22;2593;52.466;13.436;2023-01-23T02:05:31;1.90;99.90
5150;DHT22;2593;52.466;13.436;2023-01-23T02:10:42;2.10;99.90
5150;DHT22;2593;52.466;13.436;2023-01-23T02:15:51;2.00;99.90
5150;DHT22;2593;52.466;13.436;2023-01-23T02:18:17;1.90;99.90
5150;DHT22;2593;52.466;13.436;2023-01-23T02:20:44;1.90;99.90
5150;DHT22;2593;52.466;13.436;2023-01-23T02:26:04;1.90;99.90
5150;DHT22;2593;52.466;13.436;2023-01-23T02:28:56;2.00;99.90
5150;DHT22;2593;52.466;13.436;2023-01-23T02:31:23;2.00;99.90
5150;DHT22;2593;52.466;13.436;2023-01-23T02:33:51;2.00;99.90
5150;DHT22;2593;52.466;13.436;2023-01-23T02:36:20;2.10;99.90
5150;DHT22;2593;52.466;13.436;2023-01-23T02:39:08;2.00;99.90
5150;DHT22;2593;52.466;13.436;2023-01-23T02:41:37;2.00;99.90
5150;DHT22;2593;52.466;13.436;2023-01-23T02:44:11;2.00;99.90
5150;DHT22;2593;52.466;13.436;2023-01-23T02:46:37;2.00;99.90
5150;DHT22;2593;52.466;13.436;2023-01-23T02:49:03;2.00;99.90
5150;DHT22;2593;52.466;13.436;2023-01-23T02:51:29;2.10;99.90
5150;DHT22;2593;52.466;13.436;2023-01-23T02:53:54;2.00;99.90
5150;DHT22;2593;52.466;13.436;2023-01-23T02:56:20;2.00;99.90
5150;DHT22;2593;52.466;13.436;2023-01-23T02:58:46;1.90;99.90
5150;DHT22;2593;52.466;13.436;2023-01-23T03:01:30;2.00;99.90
5150;DHT22;2593;52.466;13.436;2023-01-23T03:03:58;2.10;99.90
5150;DHT22;2593;52.466;13.436;2023-01-23T03:06:28;2.10;99.90
5150;DHT22;2593;52.466;13.436;2023-01-23T03:08:55;2.10;99.90
5150;DHT22;2593;52.466;13.436;2023-01-23T03:11:21;2.20;99.90
5150;DHT22;2593;52.466;13.436;2023-01-23T03:13:47;2.20;99.90
5150;DHT22;2593;52.466;13.436;2023-01-23T03:16:14;2.20;99.90
5150;DHT22;2593;52.466;13.436;2023-01-23T03:18:39;2.20;99.90
5150;DHT22;2593;52.466;13.436;2023-01-23T03:21:06;2.10;99.90
5150;DHT22;2593;52.466;13.436;2023-01-23T03:23:32;2.10;99.90
5150;DHT22;2593;52.466;13.436;2023-01-23T03:25:58;2.10;99.90
5150;DHT22;2593;52.466;13.436;2023-01-23T03:28:24;2.10;99.90
5150;DHT22;2593;52.466;13.436;2023-01-23T03:31:10;2.10;99.90
5150;DHT22;2593;52.466;13.436;2023-01-23T03:33:36;2.10;99.90
5150;DHT22;2593;52.466;13.436;2023-01-23T03:36:04;2.20;99.90
5150;DHT22;2593;52.466;13.436;2023-01-23T03:38:30;2.20;99.90
5150;DHT22;2593;52.466;13.436;2023-01-23T03:40:56;2.20;99.90
5150;DHT22;2593;52.466;13.436;2023-01-23T03:43:40;2.20;99.90
5150;DHT22;2593;52.466;13.436;2023-01-23T03:46:05;2.20;99.90
5150;DHT22;2593;52.466;13.436;2023-01-23T03:48:31;2.20;99.90
5150;DHT22;2593;52.466;13.436;2023-01-23T03:50:57;2.20;99.90
5150;DHT22;2593;52.466;13.436;2023-01-23T03:53:22;2.20;99.90
5150;DHT22;2593;52.466;13.436;2023-01-23T03:55:49;2.20;99.90
5150;DHT22;2593;52.466;13.436;2023-01-23T03:58:15;2.10;99.90
5150;DHT22;2593;52.466;13.436;2023-01-23T04:00:41;2.10;99.90
5150;DHT22;2593;52.466;13.436;2023-01-23T04:03:07;2.10;99.90
5150;DHT22;2593;52.466;13.436;2023-01-23T04:05:33;2.10;99.90
5150;DHT22;2593;52.466;13.436;2023-01-23T04:07:59;2.10;99.90
5150;DHT22;2593;52.466;13.436;2023-01-23T04:10:25;2.10;99.90
5150;DHT22;2593;52.466;13.436;2023-01-23T04:12:50;2.20;99.90
5150;DHT22;2593;52.466;13.436;2023-01-23T04:15:16;2.10;99.90
5150;DHT22;2593;52.466;13.436;2023-01-23T04:17:42;2.10;99.90
5150;DHT22;2593;52.466;13.436;2023-01-23T04:20:09;2.00;99.90
5150;DHT22;2593;52.466;13.436;2023-01-23T04:22:35;2.00;99.90
5150;DHT22;2593;52.466;13.436;2023-01-23T04:25:00;2.00;99.90
5150;DHT22;2593;52.466;13.436;2023-01-23T04:27:26;2.10;99.90
5150;DHT22;2593;52.466;13.436;2023-01-23T04:29:51;2.00;99.90
5150;DHT22;2593;52.466;13.436;2023-01-23T04:32:17;2.00;99.90
5150;DHT22;2593;52.466;13.436;2023-01-23T04:34:42;2.00;99.90
5150;DHT22;2593;52.466;13.436;2023-01-23T04:37:08;2.00;99.90
5150;DHT22;2593;52.466;13.436;2023-01-23T04:39:34;2.00;99.90
5150;DHT22;2593;52.466;13.436;2023-01-23T04:41:59;2.00;99.90
5150;DHT22;2593;52.466;13.436;2023-01-23T04:44:25;1.90;99.90
5150;DHT22;2593;52.466;13.436;2023-01-23T04:46:52;2.00;99.90
5150;DHT22;2593;52.466;13.436;2023-01-23T04:49:19;1.90;99.90
5150;DHT22;2593;52.466;13.436;2023-01-23T04:51:46;1.90;99.90
5150;DHT22;2593;52.466;13.436;2023-01-23T04:54:13;1.90;99.90
5150;DHT22;2593;52.466;13.436;2023-01-23T04:56:39;1.80;99.90
5150;DHT22;2593;52.466;13.436;2023-01-23T04:59:05;1.80;99.90
5150;DHT22;2593;52.466;13.436;2023-01-23T05:01:31;1.80;99.90
5150;DHT22;2593;52.466;13.436;2023-01-23T05:03:57;1.80;99.90
5150;DHT22;2593;52.466;13.436;2023-01-23T05:06:23;1.90;99.90
5150;DHT22;2593;52.466;13.436;2023-01-23T05:08:48;1.90;99.90
5150;DHT22;2593;52.466;13.436;2023-01-23T05:11:14;1.80;99.90
5150;DHT22;2593;52.466;13.436;2023-01-23T05:13:40;1.90;99.90
5150;DHT22;2593;52.466;13.436;2023-01-23T05:16:06;2.00;99.90
5150;DHT22;2593;52.466;13.436;2023-01-23T05:18:31;1.90;99.90
5150;DHT22;2593;52.466;13.436;2023-01-23T05:20:57;2.00;99.90
5150;DHT22;2593;52.466;13.436;2023-01-23T05:23:22;1.90;99.90
5150;DHT22;2593;52.466;13.436;2023-01-23T05:25:48;1.90;99.90
5150;DHT22;2593;52.466;13.436;2023-01-23T05:28:14;1.90;99.90
5150;DHT22;2593;52.466;13.436;2023-01-23T05:30:40;1.90;99.90
5150;DHT22;2593;52.466;13.436;2023-01-23T05:33:05;2.00;99.90
5150;DHT22;2593;52.466;13.436;2023-01-23T05:35:31;2.00;99.90
5150;DHT22;2593;52.466;13.436;2023-01-23T05:37:56;2.10;99.90
5150;DHT22;2593;52.466;13.436;2023-01-23T05:40:23;2.00;99.90
5150;DHT22;2593;52.466;13.436;2023-01-23T05:42:49;1.90;99.90
5150;DHT22;2593;52.466;13.436;2023-01-23T05:45:15;1.80;99.90
5150;DHT22;2593;52.466;13.436;2023-01-23T05:47:41;1.80;99.90
5150;DHT22;2593;52.466;13.436;2023-01-23T05:50:10;1.80;99.90
5150;DHT22;2593;52.466;13.436;2023-01-23T05:52:37;1.80;99.90
5150;DHT22;2593;52.466;13.436;2023-01-23T05:55:03;1.80;99.90
5150;DHT22;2593;52.466;13.436;2023-01-23T05:57:28;1.80;99.90
5150;DHT22;2593;52.466;13.436;2023-01-23T05:59:54;1.90;99.90
5150;DHT22;2593;52.466;13.436;2023-01-23T06:02:19;1.90;99.90
5150;DHT22;2593;52.466;13.436;2023-01-23T06:04:48;2.00;99.90
5150;DHT22;2593;52.466;13.436;2023-01-23T06:07:15;2.00;99.90
5150;DHT22;2593;52.466;13.436;2023-01-23T06:09:40;2.00;99.90
5150;DHT22;2593;52.466;13.436;2023-01-23T06:12:07;2.00;99.90
5150;DHT22;2593;52.466;13.436;2023-01-23T06:14:33;2.00;99.90
5150;DHT22;2593;52.466;13.436;2023-01-23T06:16:59;1.90;99.90
5150;DHT22;2593;52.466;13.436;2023-01-23T06:19:25;1.90;99.90
5150;DHT22;2593;52.466;13.436;2023-01-23T06:21:51;2.00;99.90
5150;DHT22;2593;52.466;13.436;2023-01-23T06:24:17;2.00;99.90
5150;DHT22;2593;52.466;13.436;2023-01-23T06:26:42;2.00;99.90
5150;DHT22;2593;52.466;13.436;2023-01-23T06:29:08;2.00;99.90
5150;DHT22;2593;52.466;13.436;2023-01-23T06:31:33;2.10;99.90
5150;DHT22;2593;52.466;13.436;2023-01-23T06:33:59;2.00;99.90
5150;DHT22;2593;52.466;13.436;2023-01-23T06:36:25;2.00;99.90
5150;DHT22;2593;52.466;13.436;2023-01-23T06:38:51;2.10;99.90
5150;DHT22;2593;52.466;13.436;2023-01-23T06:41:17;2.10;99.90
5150;DHT22;2593;52.466;13.436;2023-01-23T06:43:42;2.10;99.90
5150;DHT22;2593;52.466;13.436;2023-01-23T06:46:09;2.10;99.90
5150;DHT22;2593;52.466;13.436;2023-01-23T06:48:35;2.00;99.90
5150;DHT22;2593;52.466;13.436;2023-01-23T06:51:01;2.10;99.90
5150;DHT22;2593;52.466;13.436;2023-01-23T06:53:27;2.10;99.90
5150;DHT22;2593;52.466;13.436;2023-01-23T06:55:57;2.00;99.90
5150;DHT22;2593;52.466;13.436;2023-01-23T06:58:23;2.00;99.90
5150;DHT22;2593;52.466;13.436;2023-01-23T07:00:48;2.00;99.90
5150;DHT22;2593;52.466;13.436;2023-01-23T07:03:14;2.00;99.90
5150;DHT22;2593;52.466;13.436;2023-01-23T07:05:40;2.00;99.90
5150;DHT22;2593;52.466;13.436;2023-01-23T07:08:08;2.00;99.90
5150;DHT22;2593;52.466;13.436;2023-01-23T07:10:35;1.90;99.90
5150;DHT22;2593;52.466;13.436;2023-01-23T07:13:03;1.90;99.90
5150;DHT22;2593;52.466;13.436;2023-01-23T07:15:29;1.90;99.90
5150;DHT22;2593;52.466;13.436;2023-01-23T07:17:55;1.90;99.90
5150;DHT22;2593;52.466;13.436;2023-01-23T07:20:21;1.90;99.90
5150;DHT22;2593;52.466;13.436;2023-01-23T07:22:47;1.90;99.90
5150;DHT22;2593;52.466;13.436;2023-01-23T07:25:13;1.90;99.90
5150;DHT22;2593;52.466;13.436;2023-01-23T07:27:39;2.00;99.90
5150;DHT22;2593;52.466;13.436;2023-01-23T07:30:05;2.00;99.90
5150;DHT22;2593;52.466;13.436;2023-01-23T07:32:31;2.00;99.90
5150;DHT22;2593;52.466;13.436;2023-01-23T07:34:57;2.00;99.90
5150;DHT22;2593;52.466;13.436;2023-01-23T07:37:22;1.90;99.90
5150;DHT22;2593;52.466;13.436;2023-01-23T07:39:49;1.90;99.90
5150;DHT22;2593;52.466;13.436;2023-01-23T07:42:15;1.90;99.90
5150;DHT22;2593;52.466;13.436;2023-01-23T07:44:40;1.90;99.90
5150;DHT22;2593;52.466;13.436;2023-01-23T07:47:06;1.90;99.90
5150;DHT22;2593;52.466;13.436;2023-01-23T07:49:32;2.00;99.90
5150;DHT22;2593;52.466;13.436;2023-01-23T07:51:57;1.90;99.90
5150;DHT22;2593;52.466;13.436;2023-01-23T07:54:23;1.80;99.90
5150;DHT22;2593;52.466;13.436;2023-01-23T07:56:49;1.80;99.90
5150;DHT22;2593;52.466;13.436;2023-01-23T07:59:17;1.80;99.90
5150;DHT22;2593;52.466;13.436;2023-01-23T08:01:43;1.90;99.90
5150;DHT22;2593;52.466;13.436;2023-01-23T08:04:09;2.00;99.90
5150;DHT22;2593;52.466;13.436;2023-01-23T08:06:34;1.90;99.90
5150;DHT22;2593;52.466;13.436;2023-01-23T08:09:01;1.80;99.90
5150;DHT22;2593;52.466;13.436;2023-01-23T08:11:26;1.70;99.90
5150;DHT22;2593;52.466;13.436;2023-01-23T08:13:52;1.70;99.90
5150;DHT22;2593;52.466;13.436;2023-01-23T08:16:18;1.70;99.90
5150;DHT22;2593;52.466;13.436;2023-01-23T08:18:44;1.70;99.90
5150;DHT22;2593;52.466;13.436;2023-01-23T08:21:09;1.80;99.90
5150;DHT22;2593;52.466;13.436;2023-01-23T08:23:35;1.80;99.90
5150;DHT22;2593;52.466;13.436;2023-01-23T08:26:03;1.80;99.90
5150;DHT22;2593;52.466;13.436;2023-01-23T08:28:30;1.80;99.90
5150;DHT22;2593;52.466;13.436;2023-01-23T08:30:59;1.80;99.90
5150;DHT22;2593;52.466;13.436;2023-01-23T08:33:25;1.80;99.90
5150;DHT22;2593;52.466;13.436;2023-01-23T08:35:56;1.80;99.90
5150;DHT22;2593;52.466;13.436;2023-01-23T08:38:22;1.90;99.90
5150;DHT22;2593;52.466;13.436;2023-01-23T08:40:50;2.00;99.90
5150;DHT22;2593;52.466;13.436;2023-01-23T08:43:16;2.00;99.90
5150;DHT22;2593;52.466;13.436;2023-01-23T08:45:48;2.00;99.90
5150;DHT22;2593;52.466;13.436;2023-01-23T08:48:14;2.00;99.90
5150;DHT22;2593;52.466;13.436;2023-01-23T08:50:40;2.10;99.90
5150;DHT22;2593;52.466;13.436;2023-01-23T08:53:05;2.10;99.90
5150;DHT22;2593;52.466;13.436;2023-01-23T08:55:31;2.20;99.90
5150;DHT22;2593;52.466;13.436;2023-01-23T08:57:57;2.30;99.90
5150;DHT22;2593;52.466;13.436;2023-01-23T09:00:24;2.20;99.90
5150;DHT22;2593;52.466;13.436;2023-01-23T09:02:50;2.20;99.90
5150;DHT22;2593;52.466;13.436;2023-01-23T09:05:16;2.20;99.90
5150;DHT22;2593;52.466;13.436;2023-01-23T09:07:42;2.20;99.90
5150;DHT22;2593;52.466;13.436;2023-01-23T09:10:08;2.10;99.90
5150;DHT22;2593;52.466;13.436;2023-01-23T09:12:34;2.00;99.90
5150;DHT22;2593;52.466;13.436;2023-01-23T09:15:00;2.00;99.90
5150;DHT22;2593;52.466;13.436;2023-01-23T09:17:26;2.20;99.90
5150;DHT22;2593;52.466;13.436;2023-01-23T09:19:52;2.20;99.90
5150;DHT22;2593;52.466;13.436;2023-01-23T09:22:18;2.30;99.90
5150;DHT22;2593;52.466;13.436;2023-01-23T09:24:44;2.30;99.90
5150;DHT22;2593;52.466;13.436;2023-01-23T09:27:09;2.20;99.90
5150;DHT22;2593;52.466;13.436;2023-01-23T09:29:35;2.10;99.90
5150;DHT22;2593;52.466;13.436;2023-01-23T09:32:01;2.10;99.90
5150;DHT22;2593;52.466;13.436;2023-01-23T09:34:28;2.30;99.90
5150;DHT22;2593;52.466;13.436;2023-01-23T09:36:54;2.30;99.90
5150;DHT22;2593;52.466;13.436;2023-01-23T09:39:20;2.30;99.90
5150;DHT22;2593;52.466;13.436;2023-01-23T09:41:46;2.30;99.90
5150;DHT22;2593;52.466;13.436;2023-01-23T09:44:22;2.30;99.90
5150;DHT22;2593;52.466;13.436;2023-01-23T09:46:52;2.20;99.90
5150;DHT22;2593;52.466;13.436;2023-01-23T09:49:41;2.10;99.90
5150;DHT22;2593;52.466;13.436;2023-01-23T09:52:16;2.20;99.90
5150;DHT22;2593;52.466;13.436;2023-01-23T09:54:49;2.20;99.90
5150;DHT22;2593;52.466;13.436;2023-01-23T09:57:25;2.20;99.90
5150;DHT22;2593;52.466;13.436;2023-01-23T10:00:05;2.30;99.90
5150;DHT22;2593;52.466;13.436;2023-01-23T10:02:35;2.20;99.90
5150;DHT22;2593;52.466;13.436;2023-01-23T10:05:00;2.20;99.90
5150;DHT22;2593;52.466;13.436;2023-01-23T10:10:26;2.30;99.90
5150;DHT22;2593;52.466;13.436;2023-01-23T10:13:12;2.40;99.90
5150;DHT22;2593;52.466;13.436;2023-01-23T10:19:05;2.40;99.90
5150;DHT22;2593;52.466;13.436;2023-01-23T10:21:46;2.40;99.90
5150;DHT22;2593;52.466;13.436;2023-01-23T10:27:10;2.50;99.90
5150;DHT22;2593;52.466;13.436;2023-01-23T10:29:42;2.50;99.90
5150;DHT22;2593;52.466;13.436;2023-01-23T10:32:29;2.40;99.90
5150;DHT22;2593;52.466;13.436;2023-01-23T10:35:06;2.50;99.90
5150;DHT22;2593;52.466;13.436;2023-01-23T10:37:45;2.50;99.90
5150;DHT22;2593;52.466;13.436;2023-01-23T10:40:18;2.50;99.90
5150;DHT22;2593;52.466;13.436;2023-01-23T10:43:18;2.50;99.90
5150;DHT22;2593;52.466;13.436;2023-01-23T10:45:45;2.50;99.90
5150;DHT22;2593;52.466;13.436;2023-01-23T10:48:40;2.60;99.90
5150;DHT22;2593;52.466;13.436;2023-01-23T10:54:04;2.60;99.90
5150;DHT22;2593;52.466;13.436;2023-01-23T10:56:31;2.60;99.90
5150;DHT22;2593;52.466;13.436;2023-01-23T10:59:00;2.50;99.90
5150;DHT22;2593;52.466;13.436;2023-01-23T11:01:29;2.60;99.90
5150;DHT22;2593;52.466;13.436;2023-01-23T11:03:55;2.60;99.90
5150;DHT22;2593;52.466;13.436;2023-01-23T11:06:22;2.70;99.90
5150;DHT22;2593;52.466;13.436;2023-01-23T11:08:58;2.60;99.90
5150;DHT22;2593;52.466;13.436;2023-01-23T11:11:29;2.70;99.90
5150;DHT22;2593;52.466;13.436;2023-01-23T11:16:32;2.60;99.90
5150;DHT22;2593;52.466;13.436;2023-01-23T11:19:14;2.60;99.90
5150;DHT22;2593;52.466;13.436;2023-01-23T11:24:29;2.40;99.90
5150;DHT22;2593;52.466;13.436;2023-01-23T11:38:27;2.60;99.90
5150;DHT22;2593;52.466;13.436;2023-01-23T11:40:55;2.70;99.90
5150;DHT22;2593;52.466;13.436;2023-01-23T11:43:21;2.70;99.90
5150;DHT22;2593;52.466;13.436;2023-01-23T11:45:56;2.70;99.90
5150;DHT22;2593;52.466;13.436;2023-01-23T12:08:09;2.80;99.90
5150;DHT22;2593;52.466;13.436;2023-01-23T12:13:38;3.00;99.90
5150;DHT22;2593;52.466;13.436;2023-01-23T12:27:46;2.90;99.90
5150;DHT22;2593;52.466;13.436;2023-01-23T12:35:55;2.70;99.90
5150;DHT22;2593;52.466;13.436;2023-01-23T12:38:30;2.70;99.90
5150;DHT22;2593;52.466;13.436;2023-01-23T12:41:41;2.70;99.90
5150;DHT22;2593;52.466;13.436;2023-01-23T12:47:12;2.80;99.90
5150;DHT22;2593;52.466;13.436;2023-01-23T12:49:48;2.90;99.90
5150;DHT22;2593;52.466;13.436;2023-01-23T12:52:39;3.00;99.90
5150;DHT22;2593;52.466;13.436;2023-01-23T12:55:23;2.80;99.90
5150;DHT22;2593;52.466;13.436;2023-01-23T12:57:53;2.80;99.90
5150;DHT22;2593;52.466;13.436;2023-01-23T13:08:38;3.00;99.90
5150;DHT22;2593;52.466;13.436;2023-01-23T13:14:37;3.00;99.90
5150;DHT22;2593;52.466;13.436;2023-01-23T13:17:41;2.90;99.90
5150;DHT22;2593;52.466;13.436;2023-01-23T13:20:32;2.90;99.90
5150;DHT22;2593;52.466;13.436;2023-01-23T13:23:26;2.90;99.90
5150;DHT22;2593;52.466;13.436;2023-01-23T13:28:47;3.00;99.90
5150;DHT22;2593;52.466;13.436;2023-01-23T13:31:32;3.00;99.90
5150;DHT22;2593;52.466;13.436;2023-01-23T13:33:59;3.00;99.90
5150;DHT22;2593;52.466;13.436;2023-01-23T13:36:33;3.10;99.90
5150;DHT22;2593;52.466;13.436;2023-01-23T13:41:33;3.00;99.90
5150;DHT22;2593;52.466;13.436;2023-01-23T13:47:14;2.90;99.90
5150;DHT22;2593;52.466;13.436;2023-01-23T13:50:07;2.80;99.90
5150;DHT22;2593;52.466;13.436;2023-01-23T13:52:37;2.90;99.90
5150;DHT22;2593;52.466;13.436;2023-01-23T13:55:33;3.00;99.90
5150;DHT22;2593;52.466;13.436;2023-01-23T13:58:24;2.90;99.90
5150;DHT22;2593;52.466;13.436;2023-01-23T14:01:13;2.90;99.90
5150;DHT22;2593;52.466;13.436;2023-01-23T14:04:16;2.80;99.90
5150;DHT22;2593;52.466;13.436;2023-01-23T14:07:01;2.80;99.90
5150;DHT22;2593;52.466;13.436;2023-01-23T14:09:29;2.90;99.90
5150;DHT22;2593;52.466;13.436;2023-01-23T14:14:22;3.00;99.90
5150;DHT22;2593;52.466;13.436;2023-01-23T14:17:06;3.00;99.90
5150;DHT22;2593;52.466;13.436;2023-01-23T14:19:33;2.80;99.90
5150;DHT22;2593;52.466;13.436;2023-01-23T14:22:06;2.80;99.90
5150;DHT22;2593;52.466;13.436;2023-01-23T14:24:49;2.70;99.90
5150;DHT22;2593;52.466;13.436;2023-01-23T14:27:36;2.60;99.90
5150;DHT22;2593;52.466;13.436;2023-01-23T14:30:15;2.70;99.90
5150;DHT22;2593;52.466;13.436;2023-01-23T14:32:41;2.70;99.90
5150;DHT22;2593;52.466;13.436;2023-01-23T14:35:19;2.80;99.90
5150;DHT22;2593;52.466;13.436;2023-01-23T14:37:48;2.80;99.90
5150;DHT22;2593;52.466;13.436;2023-01-23T14:40:19;2.80;99.90
5150;DHT22;2593;52.466;13.436;2023-01-23T14:42:49;2.80;99.90
5150;DHT22;2593;52.466;13.436;2023-01-23T14:45:16;2.70;99.90
5150;DHT22;2593;52.466;13.436;2023-01-23T14:47:44;2.60;99.90
5150;DHT22;2593;52.466;13.436;2023-01-23T14:50:18;2.60;99.90
5150;DHT22;2593;52.466;13.436;2023-01-23T14:52:44;2.60;99.90
5150;DHT22;2593;52.466;13.436;2023-01-23T14:55:21;2.70;99.90
5150;DHT22;2593;52.466;13.436;2023-01-23T14:57:49;2.60;99.90
5150;DHT22;2593;52.466;13.436;2023-01-23T15:00:17;2.50;99.90
5150;DHT22;2593;52.466;13.436;2023-01-23T15:02:43;2.50;99.90
5150;DHT22;2593;52.466;13.436;2023-01-23T15:07:45;2.50;99.90
5150;DHT22;2593;52.466;13.436;2023-01-23T15:10:26;2.50;99.90
5150;DHT22;2593;52.466;13.436;2023-01-23T15:12:58;2.50;99.90
5150;DHT22;2593;52.466;13.436;2023-01-23T15:15:26;2.40;99.90
5150;DHT22;2593;52.466;13.436;2023-01-23T15:17:53;2.50;99.90
5150;DHT22;2593;52.466;13.436;2023-01-23T15:20:36;2.40;99.90
5150;DHT22;2593;52.466;13.436;2023-01-23T15:23:26;2.50;99.90
5150;DHT22;2593;52.466;13.436;2023-01-23T15:31:28;2.60;99.90
5150;DHT22;2593;52.466;13.436;2023-01-23T15:33:56;2.60;99.90
5150;DHT22;2593;52.466;13.436;2023-01-23T15:36:34;2.60;99.90
5150;DHT22;2593;52.466;13.436;2023-01-23T15:39:01;2.70;99.90
5150;DHT22;2593;52.466;13.436;2023-01-23T15:41:44;2.70;99.90
5150;DHT22;2593;52.466;13.436;2023-01-23T15:44:14;2.70;99.90
5150;DHT22;2593;52.466;13.436;2023-01-23T15:46:40;2.60;99.90
5150;DHT22;2593;52.466;13.436;2023-01-23T15:49:06;2.50;99.90
5150;DHT22;2593;52.466;13.436;2023-01-23T15:51:32;2.40;99.90
5150;DHT22;2593;52.466;13.436;2023-01-23T15:53:57;2.50;99.90
5150;DHT22;2593;52.466;13.436;2023-01-23T15:56:29;2.40;99.90
5150;DHT22;2593;52.466;13.436;2023-01-23T15:58:56;2.40;99.90
5150;DHT22;2593;52.466;13.436;2023-01-23T16:01:23;2.40;99.90
5150;DHT22;2593;52.466;13.436;2023-01-23T16:03:49;2.40;99.90
5150;DHT22;2593;52.466;13.436;2023-01-23T16:06:18;2.40;99.90
5150;DHT22;2593;52.466;13.436;2023-01-23T16:08:47;2.40;99.90
5150;DHT22;2593;52.466;13.436;2023-01-23T16:11:12;2.40;99.90
5150;DHT22;2593;52.466;13.436;2023-01-23T16:13:38;2.40;99.90
5150;DHT22;2593;52.466;13.436;2023-01-23T16:16:14;2.30;99.90
5150;DHT22;2593;52.466;13.436;2023-01-23T16:18:40;2.40;99.90
5150;DHT22;2593;52.466;13.436;2023-01-23T16:21:06;2.40;99.90
5150;DHT22;2593;52.466;13.436;2023-01-23T16:23:36;2.40;99.90
5150;DHT22;2593;52.466;13.436;2023-01-23T16:26:01;2.40;99.90
5150;DHT22;2593;52.466;13.436;2023-01-23T16:28:27;2.40;99.90
5150;DHT22;2593;52.466;13.436;2023-01-23T16:30:54;2.40;99.90
5150;DHT22;2593;52.466;13.436;2023-01-23T16:33:20;2.30;99.90
5150;DHT22;2593;52.466;13.436;2023-01-23T16:35:47;2.30;99.90
5150;DHT22;2593;52.466;13.436;2023-01-23T16:38:22;2.30;99.90
5150;DHT22;2593;52.466;13.436;2023-01-23T16:40:50;2.20;99.90
5150;DHT22;2593;52.466;13.436;2023-01-23T16:43:18;2.30;99.90
5150;DHT22;2593;52.466;13.436;2023-01-23T16:45:44;2.20;99.90
5150;DHT22;2593;52.466;13.436;2023-01-23T16:48:10;2.20;99.90
5150;DHT22;2593;52.466;13.436;2023-01-23T16:50:38;2.20;99.90
5150;DHT22;2593;52.466;13.436;2023-01-23T16:53:29;2.20;99.90
5150;DHT22;2593;52.466;13.436;2023-01-23T16:55:58;2.20;99.90
5150;DHT22;2593;52.466;13.436;2023-01-23T16:58:26;2.30;99.90
5150;DHT22;2593;52.466;13.436;2023-01-23T17:00:58;2.30;99.90
5150;DHT22;2593;52.466;13.436;2023-01-23T17:03:31;2.20;99.90
5150;DHT22;2593;52.466;13.436;2023-01-23T17:05:58;2.20;99.90
5150;DHT22;2593;52.466;13.436;2023-01-23T17:08:24;2.20;99.90
5150;DHT22;2593;52.466;13.436;2023-01-23T17:11:01;2.20;99.90
5150;DHT22;2593;52.466;13.436;2023-01-23T17:13:28;2.10;99.90
5150;DHT22;2593;52.466;13.436;2023-01-23T17:15:57;2.10;99.90
5150;DHT22;2593;52.466;13.436;2023-01-23T17:18:27;2.10;99.90
5150;DHT22;2593;52.466;13.436;2023-01-23T17:20:54;2.10;99.90
5150;DHT22;2593;52.466;13.436;2023-01-23T17:23:21;2.10;99.90
5150;DHT22;2593;52.466;13.436;2023-01-23T17:25:47;2.10;99.90
5150;DHT22;2593;52.466;13.436;2023-01-23T17:28:17;2.10;99.90
5150;DHT22;2593;52.466;13.436;2023-01-23T17:30:45;2.10;99.90
5150;DHT22;2593;52.466;13.436;2023-01-23T17:33:17;2.10;99.90
5150;DHT22;2593;52.466;13.436;2023-01-23T17:35:43;2.10;99.90
5150;DHT22;2593;52.466;13.436;2023-01-23T17:38:19;2.10;99.90
5150;DHT22;2593;52.466;13.436;2023-01-23T17:40:45;2.20;99.90
5150;DHT22;2593;52.466;13.436;2023-01-23T17:43:12;2.10;99.90
5150;DHT22;2593;52.466;13.436;2023-01-23T17:45:38;2.20;99.90
5150;DHT22;2593;52.466;13.436;2023-01-23T17:48:12;2.20;99.90
5150;DHT22;2593;52.466;13.436;2023-01-23T17:50:43;2.20;99.90
5150;DHT22;2593;52.466;13.436;2023-01-23T17:53:14;2.30;99.90
5150;DHT22;2593;52.466;13.436;2023-01-23T17:55:40;2.20;99.90
5150;DHT22;2593;52.466;13.436;2023-01-23T17:58:08;2.20;99.90
5150;DHT22;2593;52.466;13.436;2023-01-23T18:00:34;2.30;99.90
5150;DHT22;2593;52.466;13.436;2023-01-23T18:03:02;2.40;99.90
5150;DHT22;2593;52.466;13.436;2023-01-23T18:05:28;2.30;99.90
5150;DHT22;2593;52.466;13.436;2023-01-23T18:07:54;2.30;99.90
5150;DHT22;2593;52.466;13.436;2023-01-23T18:10:21;2.30;99.90